Time;durP1;ratioP1;P1;durP2;ratioP2;P2;SDS_P1;SDS_P2;PMS_P1;PMS_P2;Temp;Humidity;BMP_temperature;BMP_pressure;BME280_temperature;BME280_humidity;BME280_pressure;Samples;Min_cycle;Max_cycle;Signal;HPM_P1;HPM_P2
2023/12/09 00:00:23;;;;;;;29.23;26.17;;;;;;;;;;4930224;28;20689;-71
2023/12/09 00:02:49;;;;;;;28.92;24.75;;;;;;;;;;4938952;28;20027;-72
2023/12/09 00:05:15;;;;;;;27.85;24.90;;;;;;;;;;4941468;28;20153;-72
2023/12/09 00:07:40;;;;;;;32.33;26.88;;;;;;;;;;4941396;28;20053;-71
2023/12/09 00:10:06;;;;;;;30.08;26.05;;;;;;;;;;4941861;28;20039;-72
2023/12/09 00:12:32;;;;;;;29.02;24.60;;;;;;;;;;4940030;28;20047;-72
2023/12/09 00:14:57;;;;;;;28.35;24.52;;;;;;;;;;4937527;28;20133;-72
2023/12/09 00:17:22;;;;;;;32.50;25.58;;;;;;;;;;4942012;28;20035;-72
2023/12/09 00:19:48;;;;;;;28.80;24.50;;;;;;;;;;4945061;28;20163;-72
2023/12/09 00:22:14;;;;;;;29.17;25.33;;;;;;;;;;4943602;28;20564;-71
2023/12/09 00:24:39;;;;;;;36.17;26.38;;;;;;;;;;4941980;28;20071;-71
2023/12/09 00:27:05;;;;;;;33.00;26.38;;;;;;;;;;4937447;28;20039;-71
2023/12/09 00:29:30;;;;;;;28.73;25.70;;;;;;;;;;4940028;28;20079;-71
2023/12/09 00:31:55;;;;;;;28.08;25.00;;;;;;;;;;4939762;28;20705;-72
2023/12/09 00:34:21;;;;;;;32.40;25.90;;;;;;;;;;4942310;28;20042;-72
2023/12/09 00:36:46;;;;;;;30.00;25.50;;;;;;;;;;4940670;28;20038;-71
2023/12/09 00:39:12;;;;;;;28.73;25.00;;;;;;;;;;4941562;28;20043;-71
2023/12/09 00:41:37;;;;;;;27.65;23.65;;;;;;;;;;4939842;28;20027;-72
2023/12/09 00:44:03;;;;;;;29.05;24.60;;;;;;;;;;4941093;28;20043;-72
2023/12/09 00:46:28;;;;;;;25.45;22.55;;;;;;;;;;4940340;28;20046;-71
2023/12/09 00:48:54;;;;;;;26.90;24.17;;;;;;;;;;4934588;28;20046;-72
2023/12/09 00:51:19;;;;;;;27.20;22.98;;;;;;;;;;4938528;29;20046;-72
2023/12/09 00:53:45;;;;;;;31.23;22.52;;;;;;;;;;4937988;28;20918;-72
2023/12/09 00:56:11;;;;;;;24.88;22.20;;;;;;;;;;4934864;28;20051;-70
2023/12/09 00:58:36;;;;;;;26.80;23.90;;;;;;;;;;4923900;29;20035;-72
2023/12/09 01:01:02;;;;;;;27.65;23.45;;;;;;;;;;4936477;28;20137;-72
2023/12/09 01:03:27;;;;;;;26.08;23.30;;;;;;;;;;4939253;28;20385;-72
2023/12/09 01:05:53;;;;;;;25.92;23.20;;;;;;;;;;4934918;28;20039;-72
2023/12/09 01:08:18;;;;;;;24.50;21.90;;;;;;;;;;4939068;28;20039;-72
2023/12/09 01:10:44;;;;;;;27.70;22.55;;;;;;;;;;4934806;29;20139;-72
2023/12/09 01:13:09;;;;;;;27.30;24.40;;;;;;;;;;4935656;28;20065;-71
2023/12/09 01:15:35;;;;;;;28.17;24.05;;;;;;;;;;4938094;28;20229;-71
2023/12/09 01:18:00;;;;;;;30.20;25.05;;;;;;;;;;4935787;28;20085;-71
2023/12/09 01:20:26;;;;;;;28.50;24.98;;;;;;;;;;4938834;28;20039;-71
2023/12/09 01:22:51;;;;;;;29.48;25.95;;;;;;;;;;4938211;28;20134;-71
2023/12/09 01:25:18;;;;;;;27.08;24.05;;;;;;;;;;4934640;28;20059;-71
2023/12/09 01:27:43;;;;;;;27.50;24.55;;;;;;;;;;4938173;28;20114;-71
2023/12/09 01:30:09;;;;;;;29.13;23.95;;;;;;;;;;4943856;28;20089;-71
2023/12/09 01:32:34;;;;;;;30.10;26.40;;;;;;;;;;4935106;28;20031;-71
2023/12/09 01:35:00;;;;;;;28.85;25.45;;;;;;;;;;4934805;29;20042;-71
2023/12/09 01:37:26;;;;;;;33.28;24.08;;;;;;;;;;4939068;28;20039;-71
2023/12/09 01:39:51;;;;;;;30.73;25.23;;;;;;;;;;4938998;28;20054;-70
2023/12/09 01:42:17;;;;;;;29.88;24.83;;;;;;;;;;4936234;28;20492;-71
2023/12/09 01:44:42;;;;;;;33.78;27.20;;;;;;;;;;4937852;28;20036;-71
2023/12/09 01:47:08;;;;;;;30.30;23.88;;;;;;;;;;4936646;29;20035;-71
2023/12/09 01:49:35;;;;;;;26.55;23.83;;;;;;;;;;4938974;29;20089;-71
2023/12/09 01:52:01;;;;;;;26.80;23.83;;;;;;;;;;4931387;28;20043;-71
2023/12/09 01:54:28;;;;;;;29.17;24.63;;;;;;;;;;4938295;28;20043;-71
2023/12/09 01:56:55;;;;;;;31.00;23.55;;;;;;;;;;4938179;28;20035;-71
2023/12/09 01:59:21;;;;;;;29.10;25.30;;;;;;;;;;4938236;29;20034;-71
2023/12/09 02:01:47;;;;;;;29.38;24.33;;;;;;;;;;4936496;28;20039;-71
2023/12/09 02:04:18;;;;;;;27.80;23.92;;;;;;;;;;4935906;28;20053;-72
2023/12/09 02:06:43;;;;;;;29.15;25.83;;;;;;;;;;4928139;29;20043;-72
2023/12/09 02:09:09;;;;;;;27.48;24.63;;;;;;;;;;4934127;28;20077;-72
2023/12/09 02:12:00;;;;;;;29.73;25.23;;;;;;;;;;4935177;28;20674;-72
2023/12/09 02:14:38;;;;;;;30.83;25.48;;;;;;;;;;4937637;28;20050;-71
2023/12/09 02:17:19;;;;;;;27.83;23.90;;;;;;;;;;4936363;28;20078;-71
2023/12/09 02:19:45;;;;;;;27.35;22.63;;;;;;;;;;4932191;28;20039;-72
2023/12/09 02:22:10;;;;;;;26.98;24.17;;;;;;;;;;4935740;29;20039;-71
2023/12/09 02:24:36;;;;;;;27.75;24.52;;;;;;;;;;4938171;28;20050;-71
2023/12/09 02:27:07;;;;;;;28.77;25.65;;;;;;;;;;4936463;29;20035;-71
2023/12/09 02:29:39;;;;;;;25.50;22.80;;;;;;;;;;4935951;29;20130;-71
2023/12/09 02:32:08;;;;;;;27.92;24.65;;;;;;;;;;4935744;28;20062;-71
2023/12/09 02:34:37;;;;;;;26.55;23.80;;;;;;;;;;4921448;29;20039;-71
2023/12/09 02:37:04;;;;;;;23.88;21.52;;;;;;;;;;4935282;29;20118;-71
2023/12/09 02:39:30;;;;;;;26.13;23.52;;;;;;;;;;4937297;29;20043;-71
2023/12/09 02:41:57;;;;;;;28.42;23.23;;;;;;;;;;4936334;28;20038;-71
2023/12/09 02:44:24;;;;;;;27.33;21.92;;;;;;;;;;4937003;28;20049;-71
2023/12/09 02:46:56;;;;;;;25.83;22.33;;;;;;;;;;4937142;28;20046;-71
2023/12/09 02:49:23;;;;;;;26.00;23.00;;;;;;;;;;4937314;28;20035;-72
2023/12/09 02:51:49;;;;;;;27.45;23.98;;;;;;;;;;4937476;29;20521;-71
2023/12/09 02:54:14;;;;;;;27.75;22.65;;;;;;;;;;4921199;29;20517;-72
2023/12/09 02:56:40;;;;;;;30.08;22.80;;;;;;;;;;4939663;28;20038;-71
2023/12/09 02:59:05;;;;;;;24.77;22.30;;;;;;;;;;4939457;28;20046;-71
2023/12/09 03:01:31;;;;;;;26.02;23.17;;;;;;;;;;4940250;28;20101;-71
2023/12/09 03:03:56;;;;;;;28.25;21.77;;;;;;;;;;4937477;28;20046;-72
2023/12/09 03:06:22;;;;;;;20.00;18.35;;;;;;;;;;4938879;28;20067;-71
2023/12/09 03:08:48;;;;;;;23.13;20.83;;;;;;;;;;4942001;28;20051;-71
2023/12/09 03:11:14;;;;;;;24.08;21.52;;;;;;;;;;4938392;28;20045;-71
2023/12/09 03:13:39;;;;;;;23.50;21.08;;;;;;;;;;4938088;28;20039;-71
2023/12/09 03:16:05;;;;;;;28.23;21.85;;;;;;;;;;4939515;28;20031;-71
2023/12/09 03:18:31;;;;;;;27.80;23.90;;;;;;;;;;4939524;28;20054;-71
2023/12/09 03:20:57;;;;;;;31.10;25.13;;;;;;;;;;4924805;29;20038;-70
2023/12/09 03:23:22;;;;;;;26.15;23.65;;;;;;;;;;4938570;28;20038;-71
2023/12/09 03:25:48;;;;;;;27.13;24.30;;;;;;;;;;4941555;28;20042;-71
2023/12/09 03:28:14;;;;;;;32.92;24.70;;;;;;;;;;4938747;28;20107;-71
2023/12/09 03:30:39;;;;;;;22.73;20.45;;;;;;;;;;4941002;28;20046;-71
2023/12/09 03:33:05;;;;;;;25.23;21.80;;;;;;;;;;4937207;28;20035;-71
2023/12/09 03:35:30;;;;;;;25.45;22.02;;;;;;;;;;4940527;29;20047;-71
2023/12/09 03:37:56;;;;;;;26.42;22.63;;;;;;;;;;4930689;28;20141;-71
2023/12/09 03:40:21;;;;;;;30.95;25.58;;;;;;;;;;4921447;28;20071;-72
2023/12/09 03:42:47;;;;;;;29.88;24.17;;;;;;;;;;4940475;28;20031;-71
2023/12/09 03:45:12;;;;;;;27.67;24.15;;;;;;;;;;4935115;28;20093;-71
2023/12/09 03:47:38;;;;;;;30.20;24.13;;;;;;;;;;4940856;28;20045;-71
2023/12/09 03:50:04;;;;;;;38.13;26.40;;;;;;;;;;4938335;29;20041;-71
2023/12/09 03:52:29;;;;;;;31.45;26.00;;;;;;;;;;4924822;28;20039;-71
2023/12/09 03:54:55;;;;;;;27.55;23.58;;;;;;;;;;4939009;28;20063;-71
2023/12/09 03:57:20;;;;;;;30.50;24.38;;;;;;;;;;4936793;28;20042;-71
2023/12/09 03:59:46;;;;;;;21.73;19.65;;;;;;;;;;4940085;28;20046;-72
2023/12/09 04:02:11;;;;;;;27.02;23.23;;;;;;;;;;4935349;29;20134;-72
2023/12/09 04:04:39;;;;;;;27.40;22.90;;;;;;;;;;4935026;28;20042;-72
2023/12/09 04:07:04;;;;;;;27.92;23.98;;;;;;;;;;4937292;28;20102;-72
2023/12/09 04:09:30;;;;;;;25.52;22.75;;;;;;;;;;4939569;28;20039;-72
2023/12/09 04:11:55;;;;;;;27.50;22.75;;;;;;;;;;4940081;28;20039;-72
2023/12/09 04:14:21;;;;;;;26.58;23.25;;;;;;;;;;4935594;28;20053;-72
2023/12/09 04:16:46;;;;;;;24.80;22.30;;;;;;;;;;4938734;28;20042;-73
2023/12/09 04:19:12;;;;;;;34.55;24.17;;;;;;;;;;4937856;28;20051;-72
2023/12/09 04:21:37;;;;;;;25.23;21.13;;;;;;;;;;4924486;29;20039;-72
2023/12/09 04:24:03;;;;;;;15.32;14.18;;;;;;;;;;4936468;28;20117;-72
2023/12/09 04:26:28;;;;;;;24.35;21.75;;;;;;;;;;4939641;28;20031;-72
2023/12/09 04:28:54;;;;;;;19.50;17.70;;;;;;;;;;4939849;29;20031;-72
2023/12/09 04:31:19;;;;;;;26.83;21.13;;;;;;;;;;4937040;28;20046;-71
2023/12/09 04:33:45;;;;;;;27.73;22.63;;;;;;;;;;4938401;28;20043;-72
2023/12/09 04:36:11;;;;;;;27.83;23.23;;;;;;;;;;4937087;28;20886;-71
2023/12/09 04:38:36;;;;;;;23.00;20.70;;;;;;;;;;4938619;28;20147;-71
2023/12/09 04:41:02;;;;;;;31.23;22.75;;;;;;;;;;4937107;28;20110;-71
2023/12/09 04:43:28;;;;;;;24.77;21.25;;;;;;;;;;4938614;28;20058;-71
2023/12/09 04:45:53;;;;;;;25.20;21.23;;;;;;;;;;4938679;28;20042;-71
2023/12/09 04:48:19;;;;;;;24.55;20.73;;;;;;;;;;4936653;28;20077;-71
2023/12/09 04:50:44;;;;;;;18.75;17.05;;;;;;;;;;4939591;28;20690;-72
2023/12/09 04:53:10;;;;;;;21.55;19.38;;;;;;;;;;4936756;29;20039;-72
2023/12/09 04:55:37;;;;;;;24.48;21.52;;;;;;;;;;4937555;28;20179;-72
2023/12/09 04:58:03;;;;;;;24.55;20.05;;;;;;;;;;4920084;28;20663;-72
2023/12/09 05:00:28;;;;;;;27.25;24.30;;;;;;;;;;4936537;28;20106;-71
2023/12/09 05:02:54;;;;;;;24.48;21.83;;;;;;;;;;4938623;28;20042;-72
2023/12/09 05:05:19;;;;;;;22.67;19.27;;;;;;;;;;4935546;28;20688;-72
2023/12/09 05:07:45;;;;;;;22.83;20.50;;;;;;;;;;4938923;28;20102;-72
2023/12/09 05:10:12;;;;;;;21.40;19.40;;;;;;;;;;4936785;28;20071;-72
2023/12/09 05:12:40;;;;;;;29.20;19.80;;;;;;;;;;4936186;28;20124;-72
2023/12/09 05:15:06;;;;;;;21.93;19.53;;;;;;;;;;4934813;28;20213;-72
2023/12/09 05:17:32;;;;;;;31.33;23.65;;;;;;;;;;4932326;28;20303;-72
2023/12/09 05:19:58;;;;;;;22.48;20.30;;;;;;;;;;4938170;28;20073;-72
2023/12/09 05:22:24;;;;;;;25.60;19.48;;;;;;;;;;4935996;28;20038;-72
2023/12/09 05:24:50;;;;;;;23.10;20.58;;;;;;;;;;4938843;28;20039;-71
2023/12/09 05:27:17;;;;;;;23.13;20.27;;;;;;;;;;4935123;28;20035;-71
2023/12/09 05:29:43;;;;;;;19.77;17.75;;;;;;;;;;4938645;28;20074;-71
2023/12/09 05:32:09;;;;;;;20.52;18.73;;;;;;;;;;4936528;28;20066;-71
2023/12/09 05:34:35;;;;;;;19.05;16.60;;;;;;;;;;4936384;28;20493;-71
2023/12/09 05:37:00;;;;;;;19.98;18.00;;;;;;;;;;4932447;28;20043;-71
2023/12/09 05:39:26;;;;;;;21.25;19.20;;;;;;;;;;4939909;28;20080;-71
2023/12/09 05:41:51;;;;;;;20.08;18.00;;;;;;;;;;4938302;28;20126;-71
2023/12/09 05:44:17;;;;;;;20.88;18.63;;;;;;;;;;4936940;28;20739;-71
2023/12/09 05:46:43;;;;;;;19.27;17.25;;;;;;;;;;4933648;28;20097;-71
2023/12/09 05:49:09;;;;;;;18.98;17.20;;;;;;;;;;4935793;28;20039;-71
2023/12/09 05:51:34;;;;;;;20.88;17.75;;;;;;;;;;4939305;28;20043;-71
2023/12/09 05:54:00;;;;;;;22.38;16.13;;;;;;;;;;4940142;28;20114;-72
2023/12/09 05:56:26;;;;;;;20.58;18.50;;;;;;;;;;4936723;28;20039;-72
2023/12/09 05:58:51;;;;;;;26.75;20.77;;;;;;;;;;4940993;28;20035;-72
2023/12/09 06:01:17;;;;;;;24.65;20.08;;;;;;;;;;4938144;28;20722;-72
2023/12/09 06:03:42;;;;;;;21.77;19.52;;;;;;;;;;4940057;28;20437;-72
2023/12/09 06:06:08;;;;;;;23.67;21.10;;;;;;;;;;4937492;28;20495;-72
2023/12/09 06:08:33;;;;;;;23.67;21.20;;;;;;;;;;4941348;28;20042;-72
2023/12/09 06:10:59;;;;;;;24.25;20.98;;;;;;;;;;4943532;28;20035;-72
2023/12/09 06:13:24;;;;;;;22.50;20.10;;;;;;;;;;4947355;28;20043;-71
2023/12/09 06:15:50;;;;;;;27.60;20.77;;;;;;;;;;4945979;29;20051;-72
2023/12/09 06:18:16;;;;;;;20.67;18.63;;;;;;;;;;4962329;28;20061;-73
2023/12/09 06:20:41;;;;;;;23.52;19.75;;;;;;;;;;4960694;28;20082;-73
2023/12/09 06:23:07;;;;;;;20.55;18.40;;;;;;;;;;4961022;28;20061;-72
2023/12/09 06:25:32;;;;;;;17.88;16.08;;;;;;;;;;4953112;28;20051;-73
2023/12/09 06:27:58;;;;;;;22.48;19.73;;;;;;;;;;4939861;28;20132;-72
2023/12/09 06:30:23;;;;;;;21.67;18.25;;;;;;;;;;4935314;28;20039;-72
2023/12/09 06:32:49;;;;;;;22.83;16.58;;;;;;;;;;4942075;28;20043;-72
2023/12/09 06:35:14;;;;;;;19.75;17.70;;;;;;;;;;4940047;28;20440;-72
2023/12/09 06:37:40;;;;;;;30.25;24.45;;;;;;;;;;4940459;28;20122;-72
2023/12/09 06:40:06;;;;;;;40.88;27.60;;;;;;;;;;4940442;28;20082;-73
2023/12/09 06:42:32;;;;;;;36.88;27.00;;;;;;;;;;4929729;28;20031;-72
2023/12/09 06:44:57;;;;;;;21.40;18.30;;;;;;;;;;4939398;28;20042;-72
2023/12/09 06:47:24;;;;;;;21.83;19.23;;;;;;;;;;4938019;28;20054;-71
2023/12/09 06:49:49;;;;;;;22.67;19.38;;;;;;;;;;4941115;28;20445;-70
2023/12/09 06:52:15;;;;;;;25.77;20.63;;;;;;;;;;4939245;28;20047;-70
2023/12/09 06:54:40;;;;;;;22.27;19.90;;;;;;;;;;4955121;28;20079;-70
2023/12/09 06:57:06;;;;;;;86.05;17.92;;;;;;;;;;4962289;28;20095;-70
2023/12/09 06:59:32;;;;;;;20.45;18.30;;;;;;;;;;4964116;28;20042;-71
2023/12/09 07:01:57;;;;;;;21.70;18.10;;;;;;;;;;4963610;28;20031;-71
2023/12/09 07:04:23;;;;;;;31.85;22.80;;;;;;;;;;4961193;28;20031;-70
2023/12/09 07:06:49;;;;;;;20.10;18.00;;;;;;;;;;4963800;28;20062;-71
2023/12/09 07:09:15;;;;;;;18.80;17.10;;;;;;;;;;4944000;28;20138;-71
2023/12/09 07:11:40;;;;;;;24.17;19.60;;;;;;;;;;4940966;28;20078;-71
2023/12/09 07:14:06;;;;;;;20.10;18.08;;;;;;;;;;4933977;28;21051;-70
2023/12/09 07:16:31;;;;;;;24.33;18.95;;;;;;;;;;4926583;29;20074;-71
2023/12/09 07:19:00;;;;;;;20.83;18.20;;;;;;;;;;4941384;28;20437;-71
2023/12/09 07:21:28;;;;;;;20.98;18.80;;;;;;;;;;4938852;28;20600;-70
2023/12/09 07:23:55;;;;;;;18.95;17.30;;;;;;;;;;4939508;28;20038;-72
2023/12/09 07:26:21;;;;;;;23.30;18.50;;;;;;;;;;4938383;28;20066;-71
2023/12/09 07:28:47;;;;;;;19.45;17.58;;;;;;;;;;4939479;28;20039;-71
2023/12/09 07:31:13;;;;;;;24.67;20.05;;;;;;;;;;4939250;28;20058;-71
2023/12/09 07:33:39;;;;;;;23.80;18.25;;;;;;;;;;4937405;28;20068;-71
2023/12/09 07:36:05;;;;;;;23.88;19.38;;;;;;;;;;4941422;28;20059;-72
2023/12/09 07:38:31;;;;;;;20.38;18.17;;;;;;;;;;4937839;28;20039;-71
2023/12/09 07:40:57;;;;;;;20.33;18.35;;;;;;;;;;4939834;28;20121;-71
2023/12/09 07:43:22;;;;;;;23.17;17.75;;;;;;;;;;4936933;28;20028;-71
2023/12/09 07:45:48;;;;;;;21.45;19.30;;;;;;;;;;4940416;28;20047;-70
2023/12/09 07:48:13;;;;;;;19.65;17.90;;;;;;;;;;4939021;28;20130;-71
2023/12/09 07:50:39;;;;;;;20.88;17.88;;;;;;;;;;4939074;28;20035;-71
2023/12/09 07:53:04;;;;;;;17.45;15.90;;;;;;;;;;4938487;28;20047;-71
2023/12/09 07:55:30;;;;;;;17.02;15.43;;;;;;;;;;4937112;28;20039;-71
2023/12/09 07:57:58;;;;;;;24.85;17.70;;;;;;;;;;4941102;28;20046;-71
2023/12/09 08:00:27;;;;;;;22.88;18.95;;;;;;;;;;4921980;28;20047;-71
2023/12/09 08:02:55;;;;;;;22.90;18.88;;;;;;;;;;4939743;28;20035;-70
2023/12/09 08:05:22;;;;;;;16.27;14.67;;;;;;;;;;4938095;28;20138;-71
2023/12/09 08:07:48;;;;;;;20.30;17.83;;;;;;;;;;4937615;28;20031;-70
2023/12/09 08:10:13;;;;;;;19.20;17.60;;;;;;;;;;4938618;28;20046;-70
2023/12/09 08:12:39;;;;;;;19.15;17.38;;;;;;;;;;4938759;28;20456;-70
2023/12/09 08:15:05;;;;;;;31.67;28.00;;;;;;;;;;4937644;28;20038;-70
2023/12/09 08:17:30;;;;;;;24.55;21.92;;;;;;;;;;4936919;28;20588;-70
2023/12/09 08:19:56;;;;;;;19.02;17.02;;;;;;;;;;4940271;29;20035;-70
2023/12/09 08:22:21;;;;;;;23.25;18.23;;;;;;;;;;4923491;28;20525;-70
2023/12/09 08:24:47;;;;;;;17.27;15.77;;;;;;;;;;4939746;28;20035;-70
2023/12/09 08:27:12;;;;;;;21.05;18.88;;;;;;;;;;4936592;28;20043;-70
2023/12/09 08:29:38;;;;;;;16.35;15.15;;;;;;;;;;4939600;28;20109;-69
2023/12/09 08:32:04;;;;;;;20.98;18.63;;;;;;;;;;4939763;28;20429;-71
2023/12/09 08:34:30;;;;;;;20.08;18.10;;;;;;;;;;4937026;28;20675;-71
2023/12/09 10:13:37;;;;;;;18.80;16.95;;;;;;;;;;4929973;28;20122;-71
2023/12/09 10:16:03;;;;;;;17.38;15.98;;;;;;;;;;4939992;28;20043;-71
2023/12/09 10:18:30;;;;;;;20.23;18.38;;;;;;;;;;4943241;28;20117;-71
2023/12/09 10:21:00;;;;;;;19.27;17.58;;;;;;;;;;4941193;28;20066;-69
2023/12/09 10:23:26;;;;;;;19.52;17.73;;;;;;;;;;4949194;28;20035;-70
2023/12/09 10:25:52;;;;;;;20.17;18.13;;;;;;;;;;4942156;29;20062;-70
2023/12/09 10:28:19;;;;;;;20.35;18.05;;;;;;;;;;4962756;28;20039;-69
2023/12/09 10:30:46;;;;;;;21.58;19.48;;;;;;;;;;4956375;28;20289;-70
2023/12/09 10:33:12;;;;;;;19.52;17.70;;;;;;;;;;4963590;28;20103;-72
2023/12/09 10:35:38;;;;;;;21.27;19.27;;;;;;;;;;4963817;28;20054;-71
2023/12/09 10:38:04;;;;;;;24.58;19.73;;;;;;;;;;4948555;28;20039;-71
2023/12/09 10:40:32;;;;;;;17.92;16.50;;;;;;;;;;4941787;28;20041;-70
2023/12/09 10:42:57;;;;;;;20.02;18.38;;;;;;;;;;4941588;28;20027;-70
2023/12/09 10:45:23;;;;;;;19.98;18.08;;;;;;;;;;4940688;28;20400;-72
2023/12/09 10:47:48;;;;;;;22.00;19.85;;;;;;;;;;4942455;28;20039;-72
2023/12/09 10:50:14;;;;;;;19.00;17.40;;;;;;;;;;4944690;28;20047;-71
2023/12/09 10:52:40;;;;;;;17.00;15.65;;;;;;;;;;4926239;28;20150;-72
2023/12/09 10:55:06;;;;;;;18.92;17.23;;;;;;;;;;4943837;28;20614;-71
2023/12/09 10:57:33;;;;;;;18.98;17.27;;;;;;;;;;4942194;28;20054;-71
2023/12/09 11:00:00;;;;;;;17.77;16.30;;;;;;;;;;4940974;28;20533;-72
2023/12/09 11:02:28;;;;;;;24.92;22.38;;;;;;;;;;4922476;28;20567;-71
2023/12/09 11:04:54;;;;;;;45.03;40.50;;;;;;;;;;4942637;28;20070;-71
2023/12/09 11:07:20;;;;;;;21.08;19.17;;;;;;;;;;4939343;28;20643;-71
2023/12/09 11:09:46;;;;;;;18.00;16.23;;;;;;;;;;4947049;28;20349;-71
2023/12/09 11:12:25;;;;;;;17.05;15.73;;;;;;;;;;4944707;28;20188;-71
2023/12/09 11:14:51;;;;;;;18.17;16.67;;;;;;;;;;4936209;28;20043;-71
2023/12/09 11:17:33;;;;;;;18.27;16.70;;;;;;;;;;4939095;28;20069;-71
2023/12/09 11:20:09;;;;;;;17.58;16.10;;;;;;;;;;4936642;28;20039;-71
2023/12/09 11:22:41;;;;;;;18.17;16.60;;;;;;;;;;4941913;28;21430;-71
2023/12/09 11:25:09;;;;;;;18.25;16.80;;;;;;;;;;4939421;28;20498;-72
2023/12/09 11:27:36;;;;;;;17.95;16.45;;;;;;;;;;4939784;28;20046;-72
2023/12/09 11:30:02;;;;;;;17.27;15.65;;;;;;;;;;4940647;28;20094;-72
2023/12/09 11:32:29;;;;;;;17.75;16.17;;;;;;;;;;4941275;28;20047;-72
2023/12/09 11:34:57;;;;;;;17.35;16.00;;;;;;;;;;4940530;28;20548;-71
2023/12/09 11:37:26;;;;;;;18.60;16.90;;;;;;;;;;4941316;28;20051;-72
2023/12/09 11:39:54;;;;;;;18.02;16.45;;;;;;;;;;4943941;28;20045;-72
2023/12/09 11:42:20;;;;;;;24.08;20.85;;;;;;;;;;4940037;28;20030;-71
2023/12/09 11:44:47;;;;;;;17.80;16.25;;;;;;;;;;4943212;28;20046;-71
2023/12/09 11:47:13;;;;;;;17.25;15.68;;;;;;;;;;4940736;28;20046;-70
2023/12/09 11:49:39;;;;;;;13.57;12.70;;;;;;;;;;4939641;28;20043;-70
2023/12/09 11:52:05;;;;;;;15.77;14.40;;;;;;;;;;4941952;28;20038;-69
2023/12/09 11:54:30;;;;;;;40.22;23.20;;;;;;;;;;4941494;28;20043;-70
2023/12/09 11:56:56;;;;;;;15.43;14.23;;;;;;;;;;4940172;28;20493;-71
2023/12/09 11:59:21;;;;;;;27.20;21.92;;;;;;;;;;4938009;28;20042;-72
2023/12/09 12:01:47;;;;;;;16.98;14.27;;;;;;;;;;4940428;28;20667;-71
2023/12/09 12:04:12;;;;;;;14.68;13.57;;;;;;;;;;4940939;28;20694;-71
2023/12/09 12:06:38;;;;;;;13.02;12.20;;;;;;;;;;4938941;28;20054;-71
2023/12/09 12:09:04;;;;;;;13.38;12.57;;;;;;;;;;4942453;28;20050;-71
2023/12/09 12:11:32;;;;;;;13.75;12.85;;;;;;;;;;4938989;28;20039;-72
2023/12/09 12:14:00;;;;;;;13.32;12.52;;;;;;;;;;4936688;28;20124;-71
2023/12/09 12:16:26;;;;;;;13.50;12.65;;;;;;;;;;4939436;28;20117;-72
2023/12/09 12:18:54;;;;;;;13.68;12.77;;;;;;;;;;4936426;28;20031;-71
2023/12/09 12:21:20;;;;;;;13.23;12.43;;;;;;;;;;4937322;28;20039;-69
2023/12/09 12:23:51;;;;;;;13.45;12.65;;;;;;;;;;4936390;28;20295;-71
2023/12/09 12:26:17;;;;;;;12.52;11.82;;;;;;;;;;4940270;28;20046;-71
2023/12/09 12:28:47;;;;;;;12.70;11.80;;;;;;;;;;4939927;28;20031;-71
2023/12/09 12:31:13;;;;;;;12.20;11.50;;;;;;;;;;4941877;29;20625;-71
2023/12/09 12:33:39;;;;;;;12.05;11.30;;;;;;;;;;4939399;28;20043;-71
2023/12/09 12:36:05;;;;;;;13.05;12.25;;;;;;;;;;4944376;28;20180;-71
2023/12/09 12:38:32;;;;;;;13.02;12.13;;;;;;;;;;4941180;29;20105;-70
2023/12/09 12:40:57;;;;;;;12.85;12.05;;;;;;;;;;4942749;29;20039;-71
2023/12/09 12:43:28;;;;;;;13.32;12.43;;;;;;;;;;4955961;28;20055;-71
2023/12/09 12:45:54;;;;;;;29.30;18.25;;;;;;;;;;4963018;29;20042;-71
2023/12/09 12:48:20;;;;;;;14.35;13.45;;;;;;;;;;4966040;28;20118;-71
2023/12/09 12:50:48;;;;;;;12.23;11.52;;;;;;;;;;4967269;28;20268;-70
2023/12/09 12:53:15;;;;;;;13.55;12.63;;;;;;;;;;4966622;28;20114;-70
2023/12/09 12:55:41;;;;;;;13.57;12.68;;;;;;;;;;4949745;28;20568;-70
2023/12/09 12:58:08;;;;;;;12.13;11.43;;;;;;;;;;4942903;28;20041;-70
2023/12/09 13:00:35;;;;;;;12.57;11.70;;;;;;;;;;4937665;29;20043;-70
2023/12/09 13:03:00;;;;;;;12.82;11.98;;;;;;;;;;4935846;28;20241;-70
2023/12/09 13:05:26;;;;;;;13.48;12.57;;;;;;;;;;4937348;28;20504;-70
2023/12/09 13:07:52;;;;;;;13.15;12.27;;;;;;;;;;4939815;29;20047;-71
2023/12/09 13:10:18;;;;;;;13.93;13.02;;;;;;;;;;4939528;28;20035;-70
2023/12/09 13:12:44;;;;;;;11.90;11.20;;;;;;;;;;4937992;28;20027;-71
2023/12/09 13:15:10;;;;;;;12.93;12.13;;;;;;;;;;4939806;29;20057;-71
2023/12/09 13:17:36;;;;;;;12.95;11.85;;;;;;;;;;4927461;28;20456;-71
2023/12/09 13:20:05;;;;;;;13.65;12.35;;;;;;;;;;4939345;29;20051;-71
2023/12/09 13:22:31;;;;;;;13.00;12.10;;;;;;;;;;4936796;28;20047;-71
2023/12/09 13:24:57;;;;;;;12.38;11.48;;;;;;;;;;4938897;28;20618;-71
2023/12/09 13:27:23;;;;;;;13.25;12.23;;;;;;;;;;4937773;28;20050;-71
2023/12/09 13:29:48;;;;;;;13.15;12.25;;;;;;;;;;4935116;28;20035;-70
2023/12/09 13:32:15;;;;;;;11.43;10.73;;;;;;;;;;4937580;28;20042;-72
2023/12/09 13:34:41;;;;;;;12.57;11.68;;;;;;;;;;4937093;28;20101;-72
2023/12/09 13:37:07;;;;;;;13.35;12.40;;;;;;;;;;4939136;29;20797;-72
2023/12/09 13:39:33;;;;;;;12.48;11.68;;;;;;;;;;4936278;28;20059;-72
2023/12/09 13:41:58;;;;;;;12.90;11.95;;;;;;;;;;4938202;28;20046;-71
2023/12/09 13:44:24;;;;;;;13.43;12.32;;;;;;;;;;4937435;28;20428;-73
2023/12/09 13:46:49;;;;;;;13.50;12.50;;;;;;;;;;4937782;29;20063;-71
2023/12/09 13:49:15;;;;;;;13.38;12.48;;;;;;;;;;4925173;29;20046;-72
2023/12/09 13:51:41;;;;;;;13.18;12.18;;;;;;;;;;4937455;29;20070;-72
2023/12/09 13:54:07;;;;;;;16.67;15.00;;;;;;;;;;4939033;28;20049;-72
2023/12/09 13:56:32;;;;;;;13.25;12.35;;;;;;;;;;4933829;28;20043;-71
2023/12/09 13:58:58;;;;;;;14.55;13.55;;;;;;;;;;4936611;29;20485;-71
2023/12/09 14:01:24;;;;;;;13.90;13.00;;;;;;;;;;4935734;29;20027;-70
2023/12/09 14:03:50;;;;;;;12.80;12.00;;;;;;;;;;4934248;29;20032;-71
2023/12/09 14:06:15;;;;;;;13.52;12.57;;;;;;;;;;4933931;29;20047;-71
2023/12/09 14:08:41;;;;;;;14.27;13.05;;;;;;;;;;4937521;28;20050;-71
2023/12/09 14:11:08;;;;;;;11.85;11.15;;;;;;;;;;4937827;28;20096;-71
2023/12/09 14:13:34;;;;;;;10.77;10.10;;;;;;;;;;4934993;28;20070;-71
2023/12/09 14:16:00;;;;;;;16.80;15.35;;;;;;;;;;4939053;29;20063;-71
2023/12/09 14:18:26;;;;;;;11.98;11.18;;;;;;;;;;4937256;29;20138;-71
2023/12/09 14:20:52;;;;;;;18.05;16.40;;;;;;;;;;4937485;29;20043;-71
2023/12/09 14:23:18;;;;;;;13.27;12.38;;;;;;;;;;4937776;28;20049;-71
2023/12/09 14:25:43;;;;;;;12.40;11.50;;;;;;;;;;4937145;28;20035;-71
2023/12/09 14:28:09;;;;;;;13.30;12.40;;;;;;;;;;4938591;28;20039;-71
2023/12/09 14:30:35;;;;;;;10.93;10.25;;;;;;;;;;4935724;29;20062;-71
2023/12/09 14:33:01;;;;;;;11.27;10.57;;;;;;;;;;4916424;29;20048;-71
2023/12/09 14:35:27;;;;;;;12.98;12.13;;;;;;;;;;4936938;29;20085;-71
2023/12/09 14:37:52;;;;;;;12.57;11.57;;;;;;;;;;4938560;29;20043;-71
2023/12/09 14:40:18;;;;;;;13.80;12.77;;;;;;;;;;4938006;29;20888;-71
2023/12/09 14:42:43;;;;;;;11.88;11.18;;;;;;;;;;4936071;28;20118;-72
2023/12/09 14:45:13;;;;;;;12.63;11.77;;;;;;;;;;4938834;29;20123;-72
2023/12/09 14:47:39;;;;;;;14.13;12.85;;;;;;;;;;4937047;28;20035;-72
2023/12/09 14:50:05;;;;;;;12.52;11.75;;;;;;;;;;4936932;28;20588;-71
2023/12/09 14:52:31;;;;;;;14.10;13.10;;;;;;;;;;4935377;28;20402;-72
2023/12/09 14:54:57;;;;;;;13.38;12.38;;;;;;;;;;4940398;29;20386;-72
2023/12/09 14:57:23;;;;;;;13.10;12.18;;;;;;;;;;4941946;29;20050;-72
2023/12/09 14:59:48;;;;;;;13.48;12.52;;;;;;;;;;4938665;29;20035;-72
2023/12/09 15:02:14;;;;;;;12.77;11.88;;;;;;;;;;4939526;28;20043;-72
2023/12/09 15:04:40;;;;;;;12.50;11.70;;;;;;;;;;4941180;28;20038;-72
2023/12/09 15:07:06;;;;;;;12.32;11.35;;;;;;;;;;4941479;29;20047;-72
2023/12/09 15:09:32;;;;;;;13.60;12.45;;;;;;;;;;4936511;29;20394;-72
2023/12/09 15:11:58;;;;;;;13.48;12.50;;;;;;;;;;4940466;29;20040;-71
2023/12/09 15:14:24;;;;;;;14.02;12.93;;;;;;;;;;4940951;28;20042;-72
2023/12/09 15:16:49;;;;;;;13.27;12.27;;;;;;;;;;4941504;29;20089;-71
2023/12/09 15:19:15;;;;;;;13.02;12.13;;;;;;;;;;4940108;28;20038;-72
2023/12/09 15:21:41;;;;;;;13.57;12.57;;;;;;;;;;4939319;29;20658;-72
2023/12/09 15:24:06;;;;;;;14.30;13.25;;;;;;;;;;4938547;28;20051;-72
2023/12/09 15:26:32;;;;;;;12.25;11.45;;;;;;;;;;4938750;28;20623;-72
2023/12/09 15:28:58;;;;;;;11.65;10.95;;;;;;;;;;4939463;29;20516;-72
2023/12/09 15:31:24;;;;;;;12.30;11.48;;;;;;;;;;4937691;28;20055;-72
2023/12/09 15:33:53;;;;;;;14.65;13.57;;;;;;;;;;4935928;29;20039;-72
2023/12/09 15:36:20;;;;;;;13.40;12.40;;;;;;;;;;4928273;29;20038;-72
2023/12/09 15:38:46;;;;;;;13.13;12.18;;;;;;;;;;4939985;29;20035;-72
2023/12/09 15:41:11;;;;;;;13.43;12.52;;;;;;;;;;4934343;29;20073;-72
2023/12/09 15:43:37;;;;;;;11.80;11.05;;;;;;;;;;4936010;28;20156;-73
2023/12/09 15:46:03;;;;;;;12.85;11.98;;;;;;;;;;4939562;29;20039;-73